Krabi, Thailand

3:17 AM ICT on August 30, 2014 (GMT +0700)
Ao Nang, Krabi | Change Station
CLOSE
Current Station
Personal Weather Station
Location: Ao Nang, Krabi
Elevation: 177 ft
Nearby Weather Stations

Elev 177 ft 8.05 °N, 98.84 °E | Updated 19 seconds ago

Mostly Cloudy
Mostly Cloudy
77.2 °F
Feels Like 78 °F
N
1.1
Wind Variable Wind from SW
Gusts 1.1 mph

Today
High -- | Low -- °F
--% Chance of Precip.
Yesterday
High -- | Low -- °F
Precip. -- in
6:16 AM 6:33 PM
Waxing Crescent, 16% visible
Pressure 29.83 in
Visibility 6.2 miles
Clouds Few 1800 ft
Scattered Clouds 12000 ft
Mostly Cloudy 30000 ft
Heat Index 78 °F
Dew Point 75 °F
Humidity 94%
Rainfall 0.00 in
Snow Depth Not available.
UV 0.0 out of 12
Pollen Not available.
Air Quality Not available.
Flu Activity Not available.
METAR VTSP 292000Z 00000KT 9999 FEW018 SCT120 BKN300 24/23 Q1010 A2983

More Conditions Fewer Conditions

Pressure 29.83 in
Visibility 6.2 miles
Clouds Few 1800 ft
Scattered Clouds 12000 ft
Mostly Cloudy 30000 ft
Heat Index 78 °F
Dew Point 75 °F
Humidity 94%
Rainfall 0.00 in
Snow Depth Not available.
UV 0.0 out of 12
Pollen Not available.
Air Quality Not available.
Flu Activity Not available.
METAR VTSP 292000Z 00000KT 9999 FEW018 SCT120 BKN300 24/23 Q1010 A2983

More Conditions Fewer Conditions

10-Day Weather Forecast

Almanac

Astronomy

Aug. 30, 2014 Rise Set
Actual Time 6:16 AM ICT 6:33 PM ICT
Civil Twilight 5:55 AM ICT 6:54 PM ICT
Nautical Twilight 5:30 AM ICT 7:19 PM ICT
Astronomical Twilight 5:05 AM ICT 7:43 PM ICT
Moon 9:37 AM ICT (8/30) 9:47 PM ICT (8/30)
Length of Visible Light 12h 59m
Length of Day
12h 17m
Tomorrow will be 0m 25s shorter.
Waxing Crescent, 16% of the Moon is Illuminated
Aug 29
Waxing Crescent
Sep 2
First Quarter
Sep 8
Full
Sep 15
Last Quarter
Sep 24
New

Yesterday's Extremes

Country Highs Country Lows

Community

WunderPhotos

Upload Photos

1,748,333 photos uploaded!

WunderBlogs® & News

By Dr. Jeff Masters
Director of Meteorology, Weather Underground
By Kari Strenfel
Meteorologist, Weather Underground
By Christopher C. Burt
Weather Historian, Weather Underground
August 29, 2014
August 29, 2014
August 29, 2014

Nearby

Snow Depth

Not available.

Earthquake Activity

City Distance Mag. Time & Date
No recent earthquake activity has been reported nearby.
Minimum magnitude displayed is 2.5.

Coastal Water Temperatures

Place Temperature
No Stations Reporting

Nearby Weather Stations